METAR 2014/10/24 :

EPMO 11:30: METAR EPMO 241130Z 08009KT 030V110 CAVOK 04/M07 Q1029= EPMO 11:00: METAR EPMO 241100Z 08008KT 040V100 CAVOK 03/M07 Q1029=

TAF 2014/10/24 :

EPMO 11:30: TAF EPMO 241130Z 2412/2421 10010KT CAVOK= EPMO 8:30: TAF EPMO 240830Z 2409/2418 09010KT CAVOK=

Pogoda ogólna dla Polski